createdAt,value
2022-11-06T00:02:01.827Z,68.88
2022-11-06T00:04:30.353Z,69.25
2022-11-06T00:06:57.916Z,69.47
2022-11-06T00:09:25.588Z,69.62
2022-11-06T00:11:53.298Z,69.79
2022-11-06T00:14:21.089Z,69.72
2022-11-06T00:16:48.791Z,69.58
2022-11-06T00:19:18.332Z,69.42
2022-11-06T00:21:46.008Z,69.33
2022-11-06T00:24:15.393Z,69.22
2022-11-06T00:26:43.395Z,69.31
2022-11-06T00:29:14.169Z,69.38
2022-11-06T00:31:42.530Z,69.28
2022-11-06T00:34:10.969Z,69.33
2022-11-06T00:36:38.417Z,69.38
2022-11-06T00:39:06.068Z,69.35
2022-11-06T00:41:33.425Z,69.36
2022-11-06T00:44:02.815Z,69.37
2022-11-06T00:46:31.139Z,69.50
2022-11-06T00:48:58.707Z,69.66
2022-11-06T00:51:33.382Z,69.77
2022-11-06T00:54:04.019Z,69.95
2022-11-06T00:56:32.491Z,70.00
2022-11-06T00:59:04.924Z,70.08
2022-11-06T01:01:37.628Z,70.12
2022-11-06T01:04:13.187Z,70.25
2022-11-06T01:06:45.330Z,70.39
2022-11-06T01:09:16.656Z,70.31
2022-11-06T01:14:20.471Z,70.42
2022-11-06T01:16:48.858Z,70.54
2022-11-06T01:19:19.637Z,70.55
2022-11-06T01:21:52.580Z,70.74
2022-11-06T01:24:26.143Z,70.69
2022-11-06T01:27:26.001Z,70.71
2022-11-06T01:29:27.110Z,70.77
2022-11-06T01:31:54.862Z,70.88
2022-11-06T01:34:22.543Z,71.04
2022-11-06T01:36:50.042Z,71.51
2022-11-06T01:39:17.872Z,71.72
2022-11-06T01:41:49.840Z,71.70
2022-11-06T01:44:46.751Z,71.70
2022-11-06T01:47:26.685Z,71.80
2022-11-06T01:49:59.758Z,71.76
2022-11-06T01:52:30.011Z,71.77
2022-11-06T01:55:02.338Z,71.78
2022-11-06T01:57:30.110Z,71.79
2022-11-06T01:59:57.889Z,71.69
2022-11-06T02:02:25.636Z,71.81
2022-11-06T02:04:53.416Z,71.83
2022-11-06T02:07:21.108Z,71.95
2022-11-06T02:09:48.728Z,71.97
2022-11-06T02:12:21.770Z,71.97
2022-11-06T02:15:11.670Z,72.01
2022-11-06T02:18:15.489Z,72.02
2022-11-06T02:21:07.089Z,72.03
2022-11-06T02:24:02.607Z,71.98
2022-11-06T02:26:55.689Z,71.94
2022-11-06T02:29:39.407Z,72.04
2022-11-06T02:32:24.594Z,72.12
2022-11-06T02:35:05.603Z,72.10
2022-11-06T02:37:36.955Z,72.08
2022-11-06T02:40:09.575Z,72.12
2022-11-06T02:42:45.700Z,72.09
2022-11-06T02:45:17.449Z,72.11
2022-11-06T02:47:49.952Z,71.86
2022-11-06T02:50:29.237Z,71.68
2022-11-06T02:53:06.472Z,71.51
2022-11-06T02:55:45.268Z,71.36
2022-11-06T02:58:17.271Z,71.25
2022-11-06T03:00:50.224Z,71.37
2022-11-06T03:03:23.167Z,71.55
2022-11-06T03:06:08.361Z,71.49
2022-11-06T03:08:43.294Z,71.64
2022-11-06T03:11:27.662Z,71.57
2022-11-06T03:14:12.442Z,71.58
2022-11-06T03:17:11.785Z,71.44
2022-11-06T03:19:53.752Z,71.44
2022-11-06T03:22:50.754Z,71.48
2022-11-06T03:25:35.622Z,71.57
2022-11-06T03:28:15.022Z,71.62
2022-11-06T03:30:48.286Z,71.67
2022-11-06T03:33:21.248Z,71.68
2022-11-06T03:35:56.744Z,71.73
2022-11-06T03:38:45.790Z,71.78
2022-11-06T03:41:27.070Z,71.72
2022-11-06T03:43:57.798Z,71.80
2022-11-06T03:46:28.208Z,71.86
2022-11-06T03:49:00.561Z,71.90
2022-11-06T03:51:45.429Z,71.95
2022-11-06T03:54:33.451Z,72.06
2022-11-06T03:57:05.497Z,72.28
2022-11-06T03:59:38.381Z,72.59
2022-11-06T04:02:07.238Z,72.79
2022-11-06T04:04:45.621Z,72.76
2022-11-06T04:07:20.707Z,72.86
2022-11-06T04:10:15.367Z,72.52
2022-11-06T04:13:02.844Z,72.37
2022-11-06T04:15:42.110Z,72.13
2022-11-06T04:18:15.805Z,71.90
2022-11-06T04:21:10.556Z,71.62
2022-11-06T04:23:46.528Z,71.44
2022-11-06T04:26:37.490Z,71.28
2022-11-06T04:29:20.004Z,71.28
2022-11-06T04:32:01.856Z,71.16
2022-11-06T04:34:56.002Z,71.23
2022-11-06T04:37:29.758Z,71.36
2022-11-06T04:40:14.758Z,71.44
2022-11-06T04:43:15.127Z,71.44
2022-11-06T04:45:47.042Z,71.56
2022-11-06T04:48:16.856Z,71.81
2022-11-06T04:50:55.260Z,71.69
2022-11-06T04:53:24.325Z,71.69
2022-11-06T04:55:56.215Z,71.92
2022-11-06T04:58:23.939Z,72.09
2022-11-06T05:00:51.955Z,72.16
2022-11-06T05:03:19.535Z,72.28
2022-11-06T05:05:47.075Z,72.33
2022-11-06T05:08:18.691Z,72.42
2022-11-06T05:10:47.206Z,72.54
2022-11-06T05:13:15.770Z,72.72
2022-11-06T05:15:43.251Z,72.80
2022-11-06T05:18:11.505Z,72.89
2022-11-06T05:20:39.220Z,72.93
2022-11-06T05:23:07.030Z,73.02
2022-11-06T05:25:39.580Z,73.06
2022-11-06T05:28:08.306Z,73.24
2022-11-06T05:30:37.053Z,73.48
2022-11-06T05:33:04.835Z,73.48
2022-11-06T05:35:32.848Z,73.36
2022-11-06T05:38:02.639Z,73.38
2022-11-06T05:40:30.931Z,73.32
2022-11-06T05:42:58.668Z,73.27
2022-11-06T05:45:26.121Z,73.23
2022-11-06T05:47:53.688Z,73.25
2022-11-06T05:50:21.509Z,73.19
2022-11-06T05:52:49.088Z,73.45
2022-11-06T05:55:16.891Z,73.46
2022-11-06T05:57:44.650Z,73.50
2022-11-06T06:00:14.148Z,73.30
2022-11-06T06:02:43.232Z,73.20
2022-11-06T06:05:10.968Z,73.13
2022-11-06T06:07:40.308Z,73.14
2022-11-06T06:10:09.119Z,73.24
2022-11-06T06:12:38.737Z,73.33
2022-11-06T06:15:08.640Z,73.41
2022-11-06T06:17:36.331Z,73.57
2022-11-06T06:20:05.342Z,73.64
2022-11-06T06:22:32.842Z,73.81
2022-11-06T06:25:00.675Z,73.90
2022-11-06T06:27:28.325Z,74.08
2022-11-06T06:29:55.817Z,74.18
2022-11-06T06:32:23.512Z,74.25
2022-11-06T06:34:51.223Z,74.40
2022-11-06T06:37:20.145Z,74.56
2022-11-06T06:39:48.045Z,74.71
2022-11-06T06:42:15.681Z,74.84
2022-11-06T06:44:43.185Z,74.95
2022-11-06T06:47:10.794Z,75.09
2022-11-06T06:49:38.140Z,75.18
2022-11-06T06:52:05.874Z,75.28
2022-11-06T06:54:33.441Z,75.23
2022-11-06T06:57:00.845Z,75.26
2022-11-06T06:59:29.015Z,75.10
2022-11-06T07:01:57.372Z,74.99
2022-11-06T07:04:24.980Z,74.82
2022-11-06T07:06:55.958Z,74.59
2022-11-06T07:09:23.638Z,74.47
2022-11-06T07:11:51.239Z,74.27
2022-11-06T07:14:18.869Z,74.16
2022-11-06T07:16:51.035Z,74.11
2022-11-06T07:19:16.647Z,74.11
2022-11-06T07:21:44.076Z,74.18
2022-11-06T07:24:11.819Z,74.22
2022-11-06T07:26:39.475Z,74.27
2022-11-06T07:29:07.817Z,74.24
2022-11-06T07:31:35.265Z,74.18
2022-11-06T07:34:02.808Z,74.14
2022-11-06T07:36:32.242Z,74.11
2022-11-06T07:38:59.842Z,74.12
2022-11-06T07:41:27.199Z,74.06
2022-11-06T07:43:54.891Z,73.94
2022-11-06T07:46:22.259Z,73.97
2022-11-06T07:48:49.866Z,73.91
2022-11-06T07:51:17.893Z,73.96
2022-11-06T07:53:45.488Z,73.98
2022-11-06T07:56:13.145Z,73.90
2022-11-06T07:58:40.701Z,73.97
2022-11-06T08:01:17.958Z,73.87
2022-11-06T08:03:43.771Z,73.75
2022-11-06T08:06:11.596Z,73.47
2022-11-06T08:08:39.284Z,73.23
2022-11-06T08:11:10.035Z,72.88
2022-11-06T08:13:38.800Z,72.50
2022-11-06T08:16:10.476Z,71.90
2022-11-06T08:18:38.352Z,71.65
2022-11-06T08:21:07.407Z,71.07
2022-11-06T08:23:36.156Z,70.29
2022-11-06T08:26:05.920Z,69.74
2022-11-06T08:28:34.423Z,69.00
2022-11-06T08:31:08.947Z,67.93
2022-11-06T08:33:38.578Z,67.76
2022-11-06T08:36:08.643Z,67.36
2022-11-06T08:38:36.389Z,66.67
2022-11-06T08:41:09.002Z,66.01
2022-11-06T08:43:37.945Z,65.70
2022-11-06T08:46:07.777Z,65.06
2022-11-06T08:48:36.224Z,64.84
2022-11-06T08:51:04.855Z,64.45
2022-11-06T08:53:32.536Z,63.47
2022-11-06T08:56:03.715Z,63.00
2022-11-06T08:58:31.386Z,62.38
2022-11-06T09:00:58.971Z,61.25
2022-11-06T09:03:26.628Z,60.67
2022-11-06T09:05:54.188Z,60.85
2022-11-06T09:08:21.614Z,60.42
2022-11-06T09:10:49.932Z,60.50
2022-11-06T09:13:19.094Z,59.48
2022-11-06T09:15:46.590Z,59.59
2022-11-06T09:18:14.216Z,58.97
2022-11-06T09:20:41.864Z,58.84
2022-11-06T09:23:11.878Z,58.76
2022-11-06T09:25:39.559Z,58.66
2022-11-06T09:28:07.239Z,58.61
2022-11-06T09:30:34.994Z,58.35
2022-11-06T09:33:03.376Z,58.54
2022-11-06T09:35:33.762Z,58.42
2022-11-06T09:38:05.981Z,58.29
2022-11-06T09:40:44.808Z,57.38
2022-11-06T09:46:28.674Z,56.53
2022-11-06T09:49:07.989Z,55.80
2022-11-06T09:51:43.992Z,55.04
2022-11-06T09:54:38.318Z,53.53
2022-11-06T09:57:22.939Z,52.68
2022-11-06T09:59:51.464Z,52.68
2022-11-06T10:02:33.918Z,52.32
2022-11-06T10:05:09.825Z,50.75
2022-11-06T10:07:43.675Z,50.82
2022-11-06T10:10:22.103Z,51.71
2022-11-06T10:13:17.788Z,51.78
2022-11-06T10:15:56.643Z,51.78
2022-11-06T10:18:35.443Z,51.11
2022-11-06T10:21:20.847Z,51.52
2022-11-06T10:24:00.479Z,51.90
2022-11-06T10:26:36.697Z,50.89
2022-11-06T10:29:18.900Z,51.01
2022-11-06T10:32:00.488Z,51.25
2022-11-06T10:34:39.234Z,51.53
2022-11-06T10:37:17.898Z,50.84
2022-11-06T10:39:46.421Z,50.81
2022-11-06T10:42:36.748Z,50.70
2022-11-06T10:45:18.200Z,50.71
2022-11-06T10:47:53.407Z,51.26
2022-11-06T10:50:24.675Z,51.45
2022-11-06T10:53:18.615Z,51.76
2022-11-06T10:56:00.167Z,50.18
2022-11-06T10:58:32.078Z,49.22
2022-11-06T11:01:03.083Z,49.85
2022-11-06T11:03:38.652Z,49.71
2022-11-06T11:06:06.999Z,49.80
2022-11-06T11:08:50.743Z,50.43
2022-11-06T11:11:25.611Z,49.98
2022-11-06T11:14:04.432Z,49.41
2022-11-06T11:16:42.215Z,49.03
2022-11-06T11:19:27.342Z,49.56
2022-11-06T11:22:20.227Z,49.07
2022-11-06T11:25:07.204Z,48.91
2022-11-06T11:27:44.339Z,48.96
2022-11-06T11:30:22.947Z,48.03
2022-11-06T11:32:50.993Z,49.03
2022-11-06T11:35:23.825Z,49.03
2022-11-06T11:37:51.410Z,49.55
2022-11-06T11:40:38.302Z,49.95
2022-11-06T11:43:29.256Z,49.99
2022-11-06T11:46:11.766Z,50.15
2022-11-06T11:48:46.343Z,50.47
2022-11-06T11:51:44.638Z,50.52
2022-11-06T11:54:17.833Z,50.67
2022-11-06T11:57:09.188Z,50.24
2022-11-06T11:59:43.261Z,50.26
2022-11-06T12:02:26.955Z,49.83
2022-11-06T12:05:02.632Z,49.44
2022-11-06T12:07:35.008Z,50.04
2022-11-06T12:10:07.449Z,49.97
2022-11-06T12:12:36.819Z,50.38
2022-11-06T12:15:24.848Z,50.18
2022-11-06T12:18:06.638Z,50.45
2022-11-06T12:20:57.813Z,50.03
2022-11-06T12:23:33.805Z,50.29
2022-11-06T12:26:27.907Z,50.68
2022-11-06T12:29:11.707Z,50.83
2022-11-06T12:32:03.091Z,50.95
2022-11-06T12:34:54.301Z,51.08
2022-11-06T12:37:42.715Z,50.95
2022-11-06T12:40:35.189Z,51.11
2022-11-06T12:43:26.547Z,51.17
2022-11-06T12:46:28.913Z,51.28
2022-11-06T12:49:38.508Z,51.60
2022-11-06T12:52:42.299Z,51.71
2022-11-06T12:55:20.919Z,51.37
2022-11-06T12:58:15.710Z,51.74
2022-11-06T13:01:19.711Z,51.93
2022-11-06T13:04:05.181Z,51.94
2022-11-06T13:06:57.852Z,52.20
2022-11-06T13:10:04.293Z,51.80
2022-11-06T13:12:56.052Z,52.22
2022-11-06T13:15:53.340Z,52.46
2022-11-06T13:18:32.123Z,52.43
2022-11-06T13:21:09.322Z,52.53
2022-11-06T13:23:45.038Z,52.27
2022-11-06T13:26:38.516Z,52.47
2022-11-06T13:29:13.783Z,52.65
2022-11-06T13:31:55.237Z,53.02
2022-11-06T13:34:26.768Z,53.08
2022-11-06T13:36:56.011Z,53.15
2022-11-06T13:39:37.925Z,53.29
2022-11-06T13:42:13.883Z,53.40
2022-11-06T13:44:41.544Z,53.43
2022-11-06T13:47:31.329Z,53.58
2022-11-06T13:50:13.236Z,53.50
2022-11-06T13:52:58.601Z,53.78
2022-11-06T13:55:40.400Z,53.93
2022-11-06T13:58:47.043Z,54.06
2022-11-06T14:01:34.861Z,54.15
2022-11-06T14:04:27.900Z,54.33
2022-11-06T14:06:59.081Z,54.45
2022-11-06T14:09:29.777Z,54.14
2022-11-06T14:12:05.200Z,54.43
2022-11-06T14:14:34.220Z,54.87
2022-11-06T14:17:19.019Z,55.29
2022-11-06T14:19:57.870Z,55.80
2022-11-06T14:22:32.556Z,56.04
2022-11-06T14:25:02.377Z,56.49
2022-11-06T14:27:37.884Z,56.89
2022-11-06T14:30:57.525Z,57.13
2022-11-06T14:33:00.177Z,57.51
2022-11-06T14:35:38.831Z,57.91
2022-11-06T14:38:33.382Z,58.33
2022-11-06T14:41:01.807Z,58.67
2022-11-06T14:43:34.731Z,58.90
2022-11-06T14:46:22.519Z,59.12
2022-11-06T14:48:53.259Z,59.18
2022-11-06T14:51:29.144Z,59.36
2022-11-06T14:54:01.121Z,59.61
2022-11-06T14:56:34.843Z,59.76
2022-11-06T14:59:10.669Z,59.82
2022-11-06T15:01:38.344Z,59.81
2022-11-06T15:04:19.415Z,59.98
2022-11-06T15:06:51.850Z,60.13
2022-11-06T15:09:30.759Z,60.45
2022-11-06T15:12:01.607Z,60.62
2022-11-06T15:14:34.542Z,60.75
2022-11-06T15:17:15.768Z,60.90
2022-11-06T15:19:54.894Z,61.03
2022-11-06T15:22:40.007Z,61.20
2022-11-06T15:25:29.625Z,61.41
2022-11-06T15:28:14.644Z,61.61
2022-11-06T15:31:14.291Z,61.80
2022-11-06T15:34:04.520Z,61.90
2022-11-06T15:36:39.335Z,62.08
2022-11-06T15:39:32.858Z,62.38
2022-11-06T15:42:00.391Z,62.61
2022-11-06T15:44:28.045Z,62.67
2022-11-06T15:46:58.564Z,62.76
2022-11-06T15:49:26.609Z,62.63
2022-11-06T15:52:02.873Z,62.85
2022-11-06T15:54:37.615Z,62.97
2022-11-06T15:57:19.142Z,63.14
2022-11-06T15:59:46.920Z,63.26
2022-11-06T16:02:24.595Z,63.33
2022-11-06T16:04:52.796Z,63.38
2022-11-06T16:07:21.660Z,63.45
2022-11-06T16:09:51.210Z,63.51
2022-11-06T16:12:19.151Z,63.55
2022-11-06T16:14:46.719Z,63.60
2022-11-06T16:17:24.725Z,63.65
2022-11-06T16:19:56.624Z,63.73
2022-11-06T16:22:30.811Z,63.82
2022-11-06T16:25:04.773Z,63.88
2022-11-06T16:27:39.894Z,63.98
2022-11-06T16:30:12.112Z,64.16
2022-11-06T16:32:41.664Z,64.28
2022-11-06T16:35:36.161Z,64.40
2022-11-06T16:38:44.486Z,64.43
2022-11-06T16:41:00.214Z,64.47
2022-11-06T16:43:27.733Z,64.54
2022-11-06T16:46:02.916Z,64.59
2022-11-06T16:48:44.401Z,64.52
2022-11-06T16:51:30.761Z,64.28
2022-11-06T16:54:00.304Z,64.18
2022-11-06T16:56:31.889Z,64.20
2022-11-06T16:59:06.767Z,64.33
2022-11-06T17:01:43.150Z,64.39
2022-11-06T17:04:26.089Z,64.46
2022-11-06T17:06:54.166Z,64.49
2022-11-06T17:09:35.240Z,64.70
2022-11-06T17:12:05.542Z,64.72
2022-11-06T17:14:33.986Z,64.88
2022-11-06T17:17:03.074Z,65.13
2022-11-06T17:19:30.619Z,65.30
2022-11-06T17:21:58.110Z,65.42
2022-11-06T17:24:40.831Z,65.58
2022-11-06T17:26:54.753Z,65.73
2022-11-06T17:29:22.601Z,65.78
2022-11-06T17:31:51.459Z,65.67
2022-11-06T17:34:19.385Z,65.78
2022-11-06T17:36:47.048Z,65.91
2022-11-06T17:39:14.396Z,65.99
2022-11-06T17:41:42.101Z,66.10
2022-11-06T17:44:12.611Z,66.18
2022-11-06T17:46:43.615Z,66.38
2022-11-06T17:49:17.546Z,66.59
2022-11-06T17:52:00.897Z,66.79
2022-11-06T17:54:32.775Z,66.92
2022-11-06T17:57:04.662Z,67.01
2022-11-06T17:59:33.208Z,67.16
2022-11-06T18:02:01.677Z,67.21
2022-11-06T18:04:30.325Z,67.06
2022-11-06T18:06:57.877Z,67.07
2022-11-06T18:09:25.645Z,67.23
2022-11-06T18:11:54.860Z,67.58
2022-11-06T18:14:24.782Z,67.62
2022-11-06T18:16:53.282Z,67.62
2022-11-06T18:19:23.109Z,67.88
2022-11-06T18:21:51.110Z,68.02
2022-11-06T18:24:18.684Z,68.02
2022-11-06T18:26:46.283Z,67.78
2022-11-06T18:29:14.036Z,67.70
2022-11-06T18:31:41.959Z,67.57
2022-11-06T18:34:19.749Z,67.34
2022-11-06T18:36:44.856Z,67.36
2022-11-06T18:39:12.577Z,67.23
2022-11-06T18:41:40.219Z,67.06
2022-11-06T18:44:07.868Z,67.11
2022-11-06T18:46:35.549Z,67.17
2022-11-06T18:49:03.070Z,67.27
2022-11-06T18:51:36.357Z,67.37
2022-11-06T18:54:07.459Z,67.42
2022-11-06T18:56:36.808Z,67.46
2022-11-06T18:59:11.636Z,67.40
2022-11-06T19:01:39.516Z,67.40
2022-11-06T19:04:09.355Z,67.54
2022-11-06T19:06:38.698Z,67.55
2022-11-06T19:09:07.966Z,67.76
2022-11-06T19:11:35.460Z,67.96
2022-11-06T19:14:02.979Z,68.08
2022-11-06T19:16:30.619Z,68.12
2022-11-06T19:21:28.511Z,68.10
2022-11-06T19:24:02.998Z,68.09
2022-11-06T19:26:31.839Z,68.10
2022-11-06T19:28:57.621Z,68.11
2022-11-06T19:31:27.194Z,68.16
2022-11-06T19:33:56.900Z,68.19
2022-11-06T19:36:24.645Z,68.24
2022-11-06T19:38:53.034Z,68.27
2022-11-06T19:41:20.970Z,68.27
2022-11-06T19:43:48.481Z,68.38
2022-11-06T19:46:22.346Z,68.42
2022-11-06T19:48:46.692Z,68.55
2022-11-06T19:51:16.257Z,68.67
2022-11-06T19:53:43.678Z,68.85
2022-11-06T19:56:14.535Z,68.98
2022-11-06T19:58:42.610Z,69.02
2022-11-06T20:01:12.628Z,68.98
2022-11-06T20:03:41.500Z,68.93
2022-11-06T20:06:09.570Z,68.95
2022-11-06T20:08:38.235Z,68.82
2022-11-06T20:11:08.132Z,68.53
2022-11-06T20:13:36.100Z,68.34
2022-11-06T20:16:09.600Z,68.39
2022-11-06T20:18:37.525Z,68.21
2022-11-06T20:21:09.505Z,67.99
2022-11-06T20:23:37.920Z,68.03
2022-11-06T20:26:06.178Z,68.08
2022-11-06T20:28:34.208Z,68.20
2022-11-06T20:31:08.796Z,68.21
2022-11-06T20:33:37.404Z,68.31
2022-11-06T20:36:26.489Z,68.40
2022-11-06T20:38:57.434Z,68.52
2022-11-06T20:41:26.491Z,68.58
2022-11-06T20:43:54.593Z,68.64
2022-11-06T20:46:23.217Z,68.69
2022-11-06T20:48:51.448Z,68.83
2022-11-06T20:51:23.190Z,68.90
2022-11-06T20:53:51.382Z,68.96
2022-11-06T20:56:21.873Z,69.18
2022-11-06T20:58:49.120Z,69.41
2022-11-06T21:01:20.206Z,69.58
2022-11-06T21:03:49.584Z,69.68
2022-11-06T21:06:19.656Z,69.68
2022-11-06T21:08:48.291Z,69.70
2022-11-06T21:11:19.790Z,69.67
2022-11-06T21:13:50.168Z,69.79
2022-11-06T21:16:22.768Z,69.88
2022-11-06T21:18:51.524Z,70.06
2022-11-06T21:21:22.946Z,70.13
2022-11-06T21:23:52.247Z,70.14
2022-11-06T21:26:29.779Z,70.06
2022-11-06T21:28:58.347Z,70.15
2022-11-06T21:31:30.209Z,70.30
2022-11-06T21:34:01.979Z,70.24
2022-11-06T21:36:33.663Z,70.06
2022-11-06T21:39:08.640Z,69.76
2022-11-06T21:41:38.058Z,69.77
2022-11-06T21:44:07.152Z,69.78
2022-11-06T21:46:35.269Z,69.53
2022-11-06T21:49:02.905Z,69.52
2022-11-06T21:51:32.688Z,69.58
2022-11-06T21:54:19.740Z,69.59
2022-11-06T21:56:50.258Z,69.70
2022-11-06T21:59:22.297Z,69.85
2022-11-06T22:01:49.987Z,69.94
2022-11-06T22:04:17.723Z,70.19
2022-11-06T22:06:45.195Z,70.29
2022-11-06T22:09:14.384Z,70.42
2022-11-06T22:11:44.003Z,70.56
2022-11-06T22:14:16.826Z,70.55
2022-11-06T22:16:46.844Z,70.58
2022-11-06T22:19:15.710Z,70.64
2022-11-06T22:21:43.292Z,70.65
2022-11-06T22:24:12.829Z,70.69
2022-11-06T22:26:41.314Z,70.71
2022-11-06T22:29:12.119Z,70.81
2022-11-06T22:31:39.641Z,70.87
2022-11-06T22:34:10.290Z,70.92
2022-11-06T22:36:37.788Z,71.00
2022-11-06T22:39:08.260Z,71.10
2022-11-06T22:41:36.685Z,71.25
2022-11-06T22:44:05.370Z,71.35
2022-11-06T22:46:34.022Z,71.34
2022-11-06T22:49:02.136Z,71.30
2022-11-06T22:51:31.935Z,71.14
2022-11-06T22:54:01.165Z,70.88
2022-11-06T22:56:30.487Z,70.72
2022-11-06T22:59:04.851Z,70.42
2022-11-06T23:01:37.221Z,70.19
2022-11-06T23:04:04.882Z,70.07
2022-11-06T23:06:33.063Z,69.89
2022-11-06T23:09:00.701Z,69.69
2022-11-06T23:11:30.341Z,69.65
2022-11-06T23:14:04.490Z,69.61
2022-11-06T23:16:48.424Z,69.82
2022-11-06T23:19:20.055Z,70.09
2022-11-06T23:21:47.644Z,70.17
2022-11-06T23:24:15.488Z,70.25
2022-11-06T23:26:44.138Z,70.20
2022-11-06T23:29:11.696Z,70.19
2022-11-06T23:31:40.559Z,70.20
2022-11-06T23:34:08.078Z,70.22
2022-11-06T23:36:35.606Z,70.38
2022-11-06T23:39:03.035Z,70.53
2022-11-06T23:41:43.099Z,70.65
2022-11-06T23:44:30.244Z,70.69
2022-11-06T23:46:58.061Z,70.80
2022-11-06T23:49:25.694Z,70.87
2022-11-06T23:51:53.640Z,70.92
2022-11-06T23:54:21.419Z,70.89
2022-11-06T23:56:49.240Z,70.82
2022-11-06T23:59:16.999Z,70.83
